sensor_id;sensor_type;location;lat;lon;timestamp;temperature;humidity
23233;DHT22;11785;49.500;8.288;2023-01-15T00:00:49;10.00;99.90
23233;DHT22;11785;49.500;8.288;2023-01-15T00:03:15;10.00;99.90
23233;DHT22;11785;49.500;8.288;2023-01-15T00:05:40;10.00;99.90
23233;DHT22;11785;49.500;8.288;2023-01-15T00:08:06;10.00;99.90
23233;DHT22;11785;49.500;8.288;2023-01-15T00:10:31;10.00;99.90
23233;DHT22;11785;49.500;8.288;2023-01-15T00:12:57;10.00;99.90
23233;DHT22;11785;49.500;8.288;2023-01-15T00:15:22;10.00;99.90
23233;DHT22;11785;49.500;8.288;2023-01-15T00:17:48;10.00;99.90
23233;DHT22;11785;49.500;8.288;2023-01-15T00:20:13;10.00;99.90
23233;DHT22;11785;49.500;8.288;2023-01-15T00:22:39;10.10;99.90
23233;DHT22;11785;49.500;8.288;2023-01-15T00:25:05;10.10;99.90
23233;DHT22;11785;49.500;8.288;2023-01-15T00:27:50;10.00;99.90
23233;DHT22;11785;49.500;8.288;2023-01-15T00:30:16;10.00;99.90
23233;DHT22;11785;49.500;8.288;2023-01-15T00:32:43;10.10;99.90
23233;DHT22;11785;49.500;8.288;2023-01-15T00:35:12;10.00;99.90
23233;DHT22;11785;49.500;8.288;2023-01-15T00:37:38;10.10;99.90
23233;DHT22;11785;49.500;8.288;2023-01-15T00:40:03;10.00;99.90
23233;DHT22;11785;49.500;8.288;2023-01-15T00:42:29;10.10;99.90
23233;DHT22;11785;49.500;8.288;2023-01-15T00:44:55;10.10;99.90
23233;DHT22;11785;49.500;8.288;2023-01-15T00:47:20;10.10;99.90
23233;DHT22;11785;49.500;8.288;2023-01-15T00:49:46;10.10;99.90
23233;DHT22;11785;49.500;8.288;2023-01-15T00:52:12;10.10;99.90
23233;DHT22;11785;49.500;8.288;2023-01-15T00:54:37;10.20;99.90
23233;DHT22;11785;49.500;8.288;2023-01-15T00:57:03;10.20;99.90
23233;DHT22;11785;49.500;8.288;2023-01-15T00:59:28;10.20;99.90
23233;DHT22;11785;49.500;8.288;2023-01-15T01:01:54;10.20;99.90
23233;DHT22;11785;49.500;8.288;2023-01-15T01:04:19;10.20;99.90
23233;DHT22;11785;49.500;8.288;2023-01-15T01:06:45;10.20;99.90
23233;DHT22;11785;49.500;8.288;2023-01-15T01:09:15;10.20;99.90
23233;DHT22;11785;49.500;8.288;2023-01-15T01:11:41;10.20;99.90
23233;DHT22;11785;49.500;8.288;2023-01-15T01:14:09;10.20;99.90
23233;DHT22;11785;49.500;8.288;2023-01-15T01:16:37;10.10;99.90
23233;DHT22;11785;49.500;8.288;2023-01-15T01:19:17;10.10;99.90
23233;DHT22;11785;49.500;8.288;2023-01-15T01:21:43;10.20;99.90
23233;DHT22;11785;49.500;8.288;2023-01-15T01:24:11;10.10;99.90
23233;DHT22;11785;49.500;8.288;2023-01-15T01:26:37;10.10;99.90
23233;DHT22;11785;49.500;8.288;2023-01-15T01:29:03;10.10;99.90
23233;DHT22;11785;49.500;8.288;2023-01-15T01:31:29;10.10;99.90
23233;DHT22;11785;49.500;8.288;2023-01-15T01:33:56;10.10;99.90
23233;DHT22;11785;49.500;8.288;2023-01-15T01:36:28;10.10;99.90
23233;DHT22;11785;49.500;8.288;2023-01-15T01:38:54;10.10;99.90
23233;DHT22;11785;49.500;8.288;2023-01-15T01:41:20;10.10;99.90
23233;DHT22;11785;49.500;8.288;2023-01-15T01:46:53;10.10;99.90
23233;DHT22;11785;49.500;8.288;2023-01-15T01:49:18;10.10;99.90
23233;DHT22;11785;49.500;8.288;2023-01-15T01:51:48;10.10;99.90
23233;DHT22;11785;49.500;8.288;2023-01-15T01:54:17;10.10;99.90
23233;DHT22;11785;49.500;8.288;2023-01-15T01:56:43;10.10;99.90
23233;DHT22;11785;49.500;8.288;2023-01-15T01:59:09;10.10;99.90
23233;DHT22;11785;49.500;8.288;2023-01-15T02:01:36;10.10;99.90
23233;DHT22;11785;49.500;8.288;2023-01-15T02:04:04;10.10;99.90
23233;DHT22;11785;49.500;8.288;2023-01-15T02:06:30;10.10;99.90
23233;DHT22;11785;49.500;8.288;2023-01-15T02:08:56;10.10;99.90
23233;DHT22;11785;49.500;8.288;2023-01-15T02:11:23;10.10;99.90
23233;DHT22;11785;49.500;8.288;2023-01-15T02:14:09;10.10;99.90
23233;DHT22;11785;49.500;8.288;2023-01-15T02:19:49;10.10;99.90
23233;DHT22;11785;49.500;8.288;2023-01-15T02:25:04;10.10;99.90
23233;DHT22;11785;49.500;8.288;2023-01-15T02:27:33;10.10;99.90
23233;DHT22;11785;49.500;8.288;2023-01-15T02:30:07;10.10;99.90
23233;DHT22;11785;49.500;8.288;2023-01-15T02:32:45;10.10;99.90
23233;DHT22;11785;49.500;8.288;2023-01-15T02:35:22;10.10;99.90
23233;DHT22;11785;49.500;8.288;2023-01-15T02:37:54;10.30;99.90
23233;DHT22;11785;49.500;8.288;2023-01-15T02:40:22;10.30;99.90
23233;DHT22;11785;49.500;8.288;2023-01-15T02:42:49;10.20;99.90
23233;DHT22;11785;49.500;8.288;2023-01-15T02:45:21;10.30;99.90
23233;DHT22;11785;49.500;8.288;2023-01-15T02:47:53;10.30;99.90
23233;DHT22;11785;49.500;8.288;2023-01-15T02:50:24;10.20;99.90
23233;DHT22;11785;49.500;8.288;2023-01-15T02:52:54;10.20;99.90
23233;DHT22;11785;49.500;8.288;2023-01-15T02:55:27;9.90;99.90
23233;DHT22;11785;49.500;8.288;2023-01-15T02:57:56;9.60;99.90
23233;DHT22;11785;49.500;8.288;2023-01-15T03:00:25;9.30;99.90
23233;DHT22;11785;49.500;8.288;2023-01-15T03:03:15;9.20;99.90
23233;DHT22;11785;49.500;8.288;2023-01-15T03:05:47;9.10;99.90
23233;DHT22;11785;49.500;8.288;2023-01-15T03:08:16;8.90;99.90
23233;DHT22;11785;49.500;8.288;2023-01-15T03:16:28;8.80;99.90
23233;DHT22;11785;49.500;8.288;2023-01-15T03:21:38;8.70;99.90
23233;DHT22;11785;49.500;8.288;2023-01-15T03:24:07;8.70;99.90
23233;DHT22;11785;49.500;8.288;2023-01-15T03:26:33;8.60;99.90
23233;DHT22;11785;49.500;8.288;2023-01-15T03:28:59;8.60;99.90
23233;DHT22;11785;49.500;8.288;2023-01-15T03:31:28;8.60;99.90
23233;DHT22;11785;49.500;8.288;2023-01-15T03:33:54;8.60;99.90
23233;DHT22;11785;49.500;8.288;2023-01-15T03:36:19;8.50;99.90
23233;DHT22;11785;49.500;8.288;2023-01-15T03:38:53;8.50;99.90
23233;DHT22;11785;49.500;8.288;2023-01-15T03:41:46;8.40;99.90
23233;DHT22;11785;49.500;8.288;2023-01-15T03:44:30;8.40;99.90
23233;DHT22;11785;49.500;8.288;2023-01-15T03:47:34;8.40;99.90
23233;DHT22;11785;49.500;8.288;2023-01-15T03:55:23;8.30;99.90
23233;DHT22;11785;49.500;8.288;2023-01-15T03:58:04;8.20;99.90
23233;DHT22;11785;49.500;8.288;2023-01-15T04:00:35;8.20;99.90
23233;DHT22;11785;49.500;8.288;2023-01-15T04:03:03;8.20;99.90
23233;DHT22;11785;49.500;8.288;2023-01-15T04:05:30;8.20;99.90
23233;DHT22;11785;49.500;8.288;2023-01-15T04:07:57;8.20;99.90
23233;DHT22;11785;49.500;8.288;2023-01-15T04:10:24;8.20;99.90
23233;DHT22;11785;49.500;8.288;2023-01-15T04:12:49;8.20;99.90
23233;DHT22;11785;49.500;8.288;2023-01-15T04:15:16;8.10;99.90
23233;DHT22;11785;49.500;8.288;2023-01-15T04:17:41;8.10;99.90
23233;DHT22;11785;49.500;8.288;2023-01-15T04:20:08;8.10;99.90
23233;DHT22;11785;49.500;8.288;2023-01-15T04:22:34;8.10;99.90
23233;DHT22;11785;49.500;8.288;2023-01-15T04:25:04;8.10;99.90
23233;DHT22;11785;49.500;8.288;2023-01-15T04:27:29;8.00;99.90
23233;DHT22;11785;49.500;8.288;2023-01-15T04:29:55;8.00;99.90
23233;DHT22;11785;49.500;8.288;2023-01-15T04:32:20;8.00;99.90
23233;DHT22;11785;49.500;8.288;2023-01-15T04:34:46;8.00;99.90
23233;DHT22;11785;49.500;8.288;2023-01-15T04:37:14;8.00;99.90
23233;DHT22;11785;49.500;8.288;2023-01-15T04:39:40;8.00;99.90
23233;DHT22;11785;49.500;8.288;2023-01-15T04:42:05;7.90;99.90
23233;DHT22;11785;49.500;8.288;2023-01-15T04:44:50;7.90;99.90
23233;DHT22;11785;49.500;8.288;2023-01-15T04:47:15;7.80;99.90
23233;DHT22;11785;49.500;8.288;2023-01-15T04:49:41;7.70;99.90
23233;DHT22;11785;49.500;8.288;2023-01-15T04:52:06;7.70;99.90
23233;DHT22;11785;49.500;8.288;2023-01-15T04:54:32;7.70;99.90
23233;DHT22;11785;49.500;8.288;2023-01-15T04:56:57;7.70;99.90
23233;DHT22;11785;49.500;8.288;2023-01-15T04:59:25;7.70;99.90
23233;DHT22;11785;49.500;8.288;2023-01-15T05:01:51;7.60;99.90
23233;DHT22;11785;49.500;8.288;2023-01-15T05:04:17;7.60;99.90
23233;DHT22;11785;49.500;8.288;2023-01-15T05:06:43;7.50;99.90
23233;DHT22;11785;49.500;8.288;2023-01-15T05:09:08;7.50;99.90
23233;DHT22;11785;49.500;8.288;2023-01-15T05:11:38;7.50;99.90
23233;DHT22;11785;49.500;8.288;2023-01-15T05:14:05;7.50;99.90
23233;DHT22;11785;49.500;8.288;2023-01-15T05:16:31;7.50;99.90
23233;DHT22;11785;49.500;8.288;2023-01-15T05:18:59;7.50;99.90
23233;DHT22;11785;49.500;8.288;2023-01-15T05:21:31;7.50;99.90
23233;DHT22;11785;49.500;8.288;2023-01-15T05:23:58;7.50;99.90
23233;DHT22;11785;49.500;8.288;2023-01-15T05:26:25;7.60;99.90
23233;DHT22;11785;49.500;8.288;2023-01-15T05:28:56;7.50;99.90
23233;DHT22;11785;49.500;8.288;2023-01-15T05:31:23;7.50;99.90
23233;DHT22;11785;49.500;8.288;2023-01-15T05:33:49;7.50;99.90
23233;DHT22;11785;49.500;8.288;2023-01-15T05:36:29;7.50;99.90
23233;DHT22;11785;49.500;8.288;2023-01-15T05:38:56;7.50;99.90
23233;DHT22;11785;49.500;8.288;2023-01-15T05:41:24;7.40;99.90
23233;DHT22;11785;49.500;8.288;2023-01-15T05:44:10;7.40;99.90
23233;DHT22;11785;49.500;8.288;2023-01-15T05:46:38;7.40;99.90
23233;DHT22;11785;49.500;8.288;2023-01-15T05:49:06;7.50;99.90
23233;DHT22;11785;49.500;8.288;2023-01-15T05:51:34;7.50;99.90
23233;DHT22;11785;49.500;8.288;2023-01-15T05:54:00;7.50;99.90
23233;DHT22;11785;49.500;8.288;2023-01-15T05:56:26;7.50;99.90
23233;DHT22;11785;49.500;8.288;2023-01-15T05:58:53;7.40;99.90
23233;DHT22;11785;49.500;8.288;2023-01-15T06:01:19;7.30;99.90
23233;DHT22;11785;49.500;8.288;2023-01-15T06:03:45;7.30;99.90
23233;DHT22;11785;49.500;8.288;2023-01-15T06:06:14;7.30;99.90
23233;DHT22;11785;49.500;8.288;2023-01-15T06:08:40;7.30;99.90
23233;DHT22;11785;49.500;8.288;2023-01-15T06:11:06;7.30;99.90
23233;DHT22;11785;49.500;8.288;2023-01-15T06:13:32;7.30;99.90
23233;DHT22;11785;49.500;8.288;2023-01-15T06:16:01;7.30;99.90
23233;DHT22;11785;49.500;8.288;2023-01-15T06:18:26;7.20;99.90
23233;DHT22;11785;49.500;8.288;2023-01-15T06:20:52;7.20;99.90
23233;DHT22;11785;49.500;8.288;2023-01-15T06:23:18;7.20;99.90
23233;DHT22;11785;49.500;8.288;2023-01-15T06:25:44;7.20;99.90
23233;DHT22;11785;49.500;8.288;2023-01-15T06:28:11;7.20;99.90
23233;DHT22;11785;49.500;8.288;2023-01-15T06:30:38;7.10;99.90
23233;DHT22;11785;49.500;8.288;2023-01-15T06:33:05;7.10;99.90
23233;DHT22;11785;49.500;8.288;2023-01-15T06:35:32;7.00;99.90
23233;DHT22;11785;49.500;8.288;2023-01-15T06:37:58;7.00;99.90
23233;DHT22;11785;49.500;8.288;2023-01-15T06:40:23;6.90;99.90
23233;DHT22;11785;49.500;8.288;2023-01-15T06:42:51;6.90;99.90
23233;DHT22;11785;49.500;8.288;2023-01-15T06:45:55;6.90;99.90
23233;DHT22;11785;49.500;8.288;2023-01-15T06:48:39;6.80;99.90
23233;DHT22;11785;49.500;8.288;2023-01-15T06:51:05;6.90;99.90
23233;DHT22;11785;49.500;8.288;2023-01-15T06:53:30;6.80;99.90
23233;DHT22;11785;49.500;8.288;2023-01-15T06:55:56;6.80;99.90
23233;DHT22;11785;49.500;8.288;2023-01-15T06:58:21;6.80;99.90
23233;DHT22;11785;49.500;8.288;2023-01-15T07:00:47;6.70;99.90
23233;DHT22;11785;49.500;8.288;2023-01-15T07:03:20;6.70;99.90
23233;DHT22;11785;49.500;8.288;2023-01-15T07:05:45;6.70;99.90
23233;DHT22;11785;49.500;8.288;2023-01-15T07:08:11;6.70;99.90
23233;DHT22;11785;49.500;8.288;2023-01-15T07:10:36;6.60;99.90
23233;DHT22;11785;49.500;8.288;2023-01-15T07:13:02;6.70;99.90
23233;DHT22;11785;49.500;8.288;2023-01-15T07:15:28;6.70;99.90
23233;DHT22;11785;49.500;8.288;2023-01-15T07:17:54;6.60;99.90
23233;DHT22;11785;49.500;8.288;2023-01-15T07:20:20;6.70;99.90
23233;DHT22;11785;49.500;8.288;2023-01-15T07:22:48;6.60;99.90
23233;DHT22;11785;49.500;8.288;2023-01-15T07:25:14;6.60;99.90
23233;DHT22;11785;49.500;8.288;2023-01-15T07:27:39;6.50;99.90
23233;DHT22;11785;49.500;8.288;2023-01-15T07:30:05;6.40;99.90
23233;DHT22;11785;49.500;8.288;2023-01-15T07:32:31;6.30;99.90
23233;DHT22;11785;49.500;8.288;2023-01-15T07:34:56;6.20;99.90
23233;DHT22;11785;49.500;8.288;2023-01-15T07:37:22;6.20;99.90
23233;DHT22;11785;49.500;8.288;2023-01-15T07:39:47;6.10;99.90
23233;DHT22;11785;49.500;8.288;2023-01-15T07:42:13;6.10;99.90
23233;DHT22;11785;49.500;8.288;2023-01-15T07:44:57;6.10;99.90
23233;DHT22;11785;49.500;8.288;2023-01-15T07:47:41;6.10;99.90
23233;DHT22;11785;49.500;8.288;2023-01-15T07:50:25;6.00;99.90
23233;DHT22;11785;49.500;8.288;2023-01-15T07:52:51;6.00;99.90
23233;DHT22;11785;49.500;8.288;2023-01-15T07:55:16;6.00;99.90
23233;DHT22;11785;49.500;8.288;2023-01-15T07:57:42;6.00;99.90
23233;DHT22;11785;49.500;8.288;2023-01-15T08:00:11;6.00;99.90
23233;DHT22;11785;49.500;8.288;2023-01-15T08:02:37;6.00;99.90
23233;DHT22;11785;49.500;8.288;2023-01-15T08:05:03;6.00;99.90
23233;DHT22;11785;49.500;8.288;2023-01-15T08:07:29;6.00;99.90
23233;DHT22;11785;49.500;8.288;2023-01-15T08:09:54;6.00;99.90
23233;DHT22;11785;49.500;8.288;2023-01-15T08:12:20;6.00;99.90
23233;DHT22;11785;49.500;8.288;2023-01-15T08:15:05;6.00;99.90
23233;DHT22;11785;49.500;8.288;2023-01-15T08:17:43;6.00;99.90
23233;DHT22;11785;49.500;8.288;2023-01-15T08:20:15;6.00;99.90
23233;DHT22;11785;49.500;8.288;2023-01-15T08:22:41;5.90;99.90
23233;DHT22;11785;49.500;8.288;2023-01-15T08:25:09;5.90;99.90
23233;DHT22;11785;49.500;8.288;2023-01-15T08:27:36;5.90;99.90
23233;DHT22;11785;49.500;8.288;2023-01-15T08:30:04;5.90;99.90
23233;DHT22;11785;49.500;8.288;2023-01-15T08:32:29;5.90;99.90
23233;DHT22;11785;49.500;8.288;2023-01-15T08:34:55;5.90;99.90
23233;DHT22;11785;49.500;8.288;2023-01-15T08:37:21;5.90;99.90
23233;DHT22;11785;49.500;8.288;2023-01-15T08:39:46;5.90;99.90
23233;DHT22;11785;49.500;8.288;2023-01-15T08:42:12;6.00;99.90
23233;DHT22;11785;49.500;8.288;2023-01-15T08:44:37;6.00;99.90
23233;DHT22;11785;49.500;8.288;2023-01-15T08:47:03;6.00;99.90
23233;DHT22;11785;49.500;8.288;2023-01-15T08:49:29;5.90;99.90
23233;DHT22;11785;49.500;8.288;2023-01-15T08:51:54;6.00;99.90
23233;DHT22;11785;49.500;8.288;2023-01-15T08:54:21;6.00;99.90
23233;DHT22;11785;49.500;8.288;2023-01-15T08:56:49;6.00;99.90
23233;DHT22;11785;49.500;8.288;2023-01-15T08:59:15;6.10;99.90
23233;DHT22;11785;49.500;8.288;2023-01-15T09:01:41;6.10;99.90
23233;DHT22;11785;49.500;8.288;2023-01-15T09:04:07;6.10;99.90
23233;DHT22;11785;49.500;8.288;2023-01-15T09:06:34;6.20;99.90
23233;DHT22;11785;49.500;8.288;2023-01-15T09:08:59;6.20;99.90
23233;DHT22;11785;49.500;8.288;2023-01-15T09:11:25;6.30;99.90
23233;DHT22;11785;49.500;8.288;2023-01-15T09:13:51;6.20;99.90
23233;DHT22;11785;49.500;8.288;2023-01-15T09:16:18;6.20;99.90
23233;DHT22;11785;49.500;8.288;2023-01-15T09:18:43;6.20;99.90
23233;DHT22;11785;49.500;8.288;2023-01-15T09:21:09;6.20;99.90
23233;DHT22;11785;49.500;8.288;2023-01-15T09:23:35;6.30;99.90
23233;DHT22;11785;49.500;8.288;2023-01-15T09:26:03;6.30;99.90
23233;DHT22;11785;49.500;8.288;2023-01-15T09:28:33;6.40;99.90
23233;DHT22;11785;49.500;8.288;2023-01-15T09:30:59;6.40;99.90
23233;DHT22;11785;49.500;8.288;2023-01-15T09:33:25;6.50;99.90
23233;DHT22;11785;49.500;8.288;2023-01-15T09:35:51;6.60;99.90
23233;DHT22;11785;49.500;8.288;2023-01-15T09:38:18;6.60;99.90
23233;DHT22;11785;49.500;8.288;2023-01-15T09:40:54;6.70;99.90
23233;DHT22;11785;49.500;8.288;2023-01-15T09:46:00;6.80;99.90
23233;DHT22;11785;49.500;8.288;2023-01-15T09:57:10;7.00;99.90
23233;DHT22;11785;49.500;8.288;2023-01-15T09:59:39;7.00;99.90
23233;DHT22;11785;49.500;8.288;2023-01-15T10:04:56;7.10;99.90
23233;DHT22;11785;49.500;8.288;2023-01-15T10:07:26;7.10;99.90
23233;DHT22;11785;49.500;8.288;2023-01-15T10:10:00;7.20;99.90
23233;DHT22;11785;49.500;8.288;2023-01-15T10:12:29;7.20;99.90
23233;DHT22;11785;49.500;8.288;2023-01-15T10:15:15;7.20;99.90
23233;DHT22;11785;49.500;8.288;2023-01-15T10:17:45;7.10;99.90
23233;DHT22;11785;49.500;8.288;2023-01-15T10:23:15;6.10;99.90
23233;DHT22;11785;49.500;8.288;2023-01-15T10:25:49;5.50;99.90
23233;DHT22;11785;49.500;8.288;2023-01-15T10:28:28;5.00;99.90
23233;DHT22;11785;49.500;8.288;2023-01-15T10:30:56;4.90;99.90
23233;DHT22;11785;49.500;8.288;2023-01-15T10:36:33;4.80;99.90
23233;DHT22;11785;49.500;8.288;2023-01-15T10:39:33;4.80;99.90
23233;DHT22;11785;49.500;8.288;2023-01-15T10:45:08;4.60;99.90
23233;DHT22;11785;49.500;8.288;2023-01-15T10:47:36;4.60;99.90
23233;DHT22;11785;49.500;8.288;2023-01-15T10:50:19;4.50;99.90
23233;DHT22;11785;49.500;8.288;2023-01-15T10:53:01;4.50;99.90
23233;DHT22;11785;49.500;8.288;2023-01-15T10:55:43;4.40;99.90
23233;DHT22;11785;49.500;8.288;2023-01-15T11:00:49;4.30;99.90
23233;DHT22;11785;49.500;8.288;2023-01-15T11:03:21;4.20;99.90
23233;DHT22;11785;49.500;8.288;2023-01-15T11:05:48;4.20;99.90
23233;DHT22;11785;49.500;8.288;2023-01-15T11:08:25;4.20;99.90
23233;DHT22;11785;49.500;8.288;2023-01-15T11:10:55;4.10;99.90
23233;DHT22;11785;49.500;8.288;2023-01-15T11:13:24;4.10;99.90
23233;DHT22;11785;49.500;8.288;2023-01-15T11:16:17;4.00;99.90
23233;DHT22;11785;49.500;8.288;2023-01-15T11:22:15;4.00;99.90
23233;DHT22;11785;49.500;8.288;2023-01-15T11:25:00;4.00;99.90
23233;DHT22;11785;49.500;8.288;2023-01-15T11:27:30;4.10;99.90
23233;DHT22;11785;49.500;8.288;2023-01-15T11:29:58;4.10;99.90
23233;DHT22;11785;49.500;8.288;2023-01-15T11:32:34;4.10;99.90
23233;DHT22;11785;49.500;8.288;2023-01-15T11:37:33;4.10;99.90
23233;DHT22;11785;49.500;8.288;2023-01-15T11:40:00;4.10;99.90
23233;DHT22;11785;49.500;8.288;2023-01-15T11:42:32;4.00;99.90
23233;DHT22;11785;49.500;8.288;2023-01-15T11:45:20;4.00;99.90
23233;DHT22;11785;49.500;8.288;2023-01-15T11:48:23;4.00;99.90
23233;DHT22;11785;49.500;8.288;2023-01-15T11:51:15;4.00;99.90
23233;DHT22;11785;49.500;8.288;2023-01-15T11:53:45;4.00;99.90
23233;DHT22;11785;49.500;8.288;2023-01-15T11:56:18;4.00;99.90
23233;DHT22;11785;49.500;8.288;2023-01-15T11:58:45;4.10;99.90
23233;DHT22;11785;49.500;8.288;2023-01-15T12:01:23;4.10;99.90
23233;DHT22;11785;49.500;8.288;2023-01-15T12:03:53;4.20;99.90
23233;DHT22;11785;49.500;8.288;2023-01-15T12:06:20;4.40;99.90
23233;DHT22;11785;49.500;8.288;2023-01-15T12:12:08;4.70;99.90
23233;DHT22;11785;49.500;8.288;2023-01-15T12:17:44;4.70;99.90
23233;DHT22;11785;49.500;8.288;2023-01-15T12:26:24;6.10;99.90
23233;DHT22;11785;49.500;8.288;2023-01-15T12:29:01;6.30;99.90
23233;DHT22;11785;49.500;8.288;2023-01-15T12:31:39;6.40;99.90
23233;DHT22;11785;49.500;8.288;2023-01-15T12:34:22;6.70;99.90
23233;DHT22;11785;49.500;8.288;2023-01-15T12:36:58;7.60;99.90
23233;DHT22;11785;49.500;8.288;2023-01-15T12:39:43;8.60;99.90
23233;DHT22;11785;49.500;8.288;2023-01-15T12:42:15;9.20;97.00
23233;DHT22;11785;49.500;8.288;2023-01-15T12:45:19;9.80;94.70
23233;DHT22;11785;49.500;8.288;2023-01-15T12:47:57;10.70;90.70
23233;DHT22;11785;49.500;8.288;2023-01-15T12:56:06;11.60;79.10
23233;DHT22;11785;49.500;8.288;2023-01-15T12:58:46;11.50;76.70
23233;DHT22;11785;49.500;8.288;2023-01-15T13:07:41;12.80;66.30
23233;DHT22;11785;49.500;8.288;2023-01-15T13:12:42;12.60;65.70
23233;DHT22;11785;49.500;8.288;2023-01-15T13:15:15;12.40;67.40
23233;DHT22;11785;49.500;8.288;2023-01-15T13:20:27;12.70;63.00
23233;DHT22;11785;49.500;8.288;2023-01-15T13:23:25;13.50;59.90
23233;DHT22;11785;49.500;8.288;2023-01-15T13:26:06;13.60;59.80
23233;DHT22;11785;49.500;8.288;2023-01-15T13:31:31;13.40;59.70
23233;DHT22;11785;49.500;8.288;2023-01-15T13:34:09;13.00;59.90
23233;DHT22;11785;49.500;8.288;2023-01-15T13:36:43;13.00;59.80
23233;DHT22;11785;49.500;8.288;2023-01-15T13:39:40;13.30;59.80
23233;DHT22;11785;49.500;8.288;2023-01-15T13:42:16;13.60;59.70
23233;DHT22;11785;49.500;8.288;2023-01-15T13:47:52;13.40;59.60
23233;DHT22;11785;49.500;8.288;2023-01-15T13:50:29;13.20;59.60
23233;DHT22;11785;49.500;8.288;2023-01-15T13:53:13;13.60;59.50
23233;DHT22;11785;49.500;8.288;2023-01-15T13:55:48;13.70;59.50
23233;DHT22;11785;49.500;8.288;2023-01-15T13:58:26;13.50;59.50
23233;DHT22;11785;49.500;8.288;2023-01-15T14:01:07;12.80;59.70
23233;DHT22;11785;49.500;8.288;2023-01-15T14:04:05;12.20;59.90
23233;DHT22;11785;49.500;8.288;2023-01-15T14:09:26;10.40;72.30
23233;DHT22;11785;49.500;8.288;2023-01-15T14:16:58;11.20;66.20
23233;DHT22;11785;49.500;8.288;2023-01-15T14:19:39;10.70;68.80
23233;DHT22;11785;49.500;8.288;2023-01-15T14:25:08;10.20;72.90
23233;DHT22;11785;49.500;8.288;2023-01-15T14:28:11;9.30;81.30
23233;DHT22;11785;49.500;8.288;2023-01-15T14:36:27;8.60;90.60
23233;DHT22;11785;49.500;8.288;2023-01-15T14:38:59;9.00;90.00
23233;DHT22;11785;49.500;8.288;2023-01-15T14:41:32;10.20;78.50
23233;DHT22;11785;49.500;8.288;2023-01-15T14:44:26;11.00;71.10
23233;DHT22;11785;49.500;8.288;2023-01-15T14:46:58;11.40;66.40
23233;DHT22;11785;49.500;8.288;2023-01-15T14:49:28;11.90;63.40
23233;DHT22;11785;49.500;8.288;2023-01-15T14:51:54;12.20;60.00
23233;DHT22;11785;49.500;8.288;2023-01-15T14:54:20;11.70;62.90
23233;DHT22;11785;49.500;8.288;2023-01-15T14:56:54;11.20;66.40
23233;DHT22;11785;49.500;8.288;2023-01-15T14:59:24;9.60;80.00
23233;DHT22;11785;49.500;8.288;2023-01-15T15:01:52;8.60;89.10
23233;DHT22;11785;49.500;8.288;2023-01-15T15:04:21;8.00;92.50
23233;DHT22;11785;49.500;8.288;2023-01-15T15:06:53;7.60;93.80
23233;DHT22;11785;49.500;8.288;2023-01-15T15:11:58;7.30;95.60
23233;DHT22;11785;49.500;8.288;2023-01-15T15:15:19;7.30;96.00
23233;DHT22;11785;49.500;8.288;2023-01-15T15:23:27;7.20;96.80
23233;DHT22;11785;49.500;8.288;2023-01-15T15:26:00;7.20;97.00
23233;DHT22;11785;49.500;8.288;2023-01-15T15:28:27;7.20;96.80
23233;DHT22;11785;49.500;8.288;2023-01-15T15:30:53;7.10;97.50
23233;DHT22;11785;49.500;8.288;2023-01-15T15:33:24;7.00;97.70
23233;DHT22;11785;49.500;8.288;2023-01-15T15:35:55;7.00;97.80
23233;DHT22;11785;49.500;8.288;2023-01-15T15:38:23;6.80;98.70
23233;DHT22;11785;49.500;8.288;2023-01-15T15:40:58;6.70;99.30
23233;DHT22;11785;49.500;8.288;2023-01-15T15:43:27;6.60;99.90
23233;DHT22;11785;49.500;8.288;2023-01-15T15:46:24;6.50;99.90
23233;DHT22;11785;49.500;8.288;2023-01-15T15:49:09;6.40;99.90
23233;DHT22;11785;49.500;8.288;2023-01-15T15:51:47;6.30;99.90
23233;DHT22;11785;49.500;8.288;2023-01-15T15:59:30;6.10;99.90
23233;DHT22;11785;49.500;8.288;2023-01-15T16:02:35;6.10;99.90
23233;DHT22;11785;49.500;8.288;2023-01-15T16:04:59;6.10;99.90
23233;DHT22;11785;49.500;8.288;2023-01-15T16:07:26;6.10;99.90
23233;DHT22;11785;49.500;8.288;2023-01-15T16:12:30;6.10;99.90
23233;DHT22;11785;49.500;8.288;2023-01-15T16:14:58;6.10;99.90
23233;DHT22;11785;49.500;8.288;2023-01-15T16:17:24;6.00;99.90
23233;DHT22;11785;49.500;8.288;2023-01-15T16:19:53;6.20;99.90
23233;DHT22;11785;49.500;8.288;2023-01-15T16:22:19;6.20;99.90
23233;DHT22;11785;49.500;8.288;2023-01-15T16:24:53;6.20;99.90
23233;DHT22;11785;49.500;8.288;2023-01-15T16:27:19;6.20;99.90
23233;DHT22;11785;49.500;8.288;2023-01-15T16:29:51;6.20;99.90
23233;DHT22;11785;49.500;8.288;2023-01-15T16:32:28;6.20;99.90
23233;DHT22;11785;49.500;8.288;2023-01-15T16:35:18;6.10;99.90
23233;DHT22;11785;49.500;8.288;2023-01-15T16:37:52;6.10;99.90
23233;DHT22;11785;49.500;8.288;2023-01-15T16:40:29;6.10;99.90
23233;DHT22;11785;49.500;8.288;2023-01-15T16:43:05;6.10;99.90
23233;DHT22;11785;49.500;8.288;2023-01-15T16:45:31;6.20;99.90
23233;DHT22;11785;49.500;8.288;2023-01-15T16:50:33;6.20;99.90
23233;DHT22;11785;49.500;8.288;2023-01-15T16:53:02;6.20;99.90
23233;DHT22;11785;49.500;8.288;2023-01-15T16:55:43;6.20;99.90
23233;DHT22;11785;49.500;8.288;2023-01-15T16:58:15;6.20;99.90
23233;DHT22;11785;49.500;8.288;2023-01-15T17:00:44;6.20;99.90
23233;DHT22;11785;49.500;8.288;2023-01-15T17:03:16;6.20;99.90
23233;DHT22;11785;49.500;8.288;2023-01-15T17:05:44;6.20;99.90
23233;DHT22;11785;49.500;8.288;2023-01-15T17:08:32;6.30;99.90
23233;DHT22;11785;49.500;8.288;2023-01-15T17:11:14;6.30;99.90
23233;DHT22;11785;49.500;8.288;2023-01-15T17:13:41;6.30;99.90
23233;DHT22;11785;49.500;8.288;2023-01-15T17:16:21;6.40;99.90
23233;DHT22;11785;49.500;8.288;2023-01-15T17:18:48;6.40;99.90
23233;DHT22;11785;49.500;8.288;2023-01-15T17:21:20;6.40;99.90
23233;DHT22;11785;49.500;8.288;2023-01-15T17:23:52;6.40;99.90
23233;DHT22;11785;49.500;8.288;2023-01-15T17:26:21;6.50;99.90
23233;DHT22;11785;49.500;8.288;2023-01-15T17:28:48;6.50;99.90
23233;DHT22;11785;49.500;8.288;2023-01-15T17:31:28;6.40;99.90
23233;DHT22;11785;49.500;8.288;2023-01-15T17:33:56;6.50;99.90
23233;DHT22;11785;49.500;8.288;2023-01-15T17:36:22;6.60;99.90
23233;DHT22;11785;49.500;8.288;2023-01-15T17:38:48;6.60;99.90
23233;DHT22;11785;49.500;8.288;2023-01-15T17:41:16;6.50;99.90
23233;DHT22;11785;49.500;8.288;2023-01-15T17:43:42;6.50;99.90
23233;DHT22;11785;49.500;8.288;2023-01-15T17:46:08;6.40;99.90
23233;DHT22;11785;49.500;8.288;2023-01-15T17:48:34;6.40;99.90
23233;DHT22;11785;49.500;8.288;2023-01-15T17:51:04;6.50;99.90
23233;DHT22;11785;49.500;8.288;2023-01-15T17:53:31;6.50;99.90
23233;DHT22;11785;49.500;8.288;2023-01-15T17:56:00;6.40;99.90
23233;DHT22;11785;49.500;8.288;2023-01-15T17:58:44;6.50;99.90
23233;DHT22;11785;49.500;8.288;2023-01-15T18:01:29;6.50;99.90
23233;DHT22;11785;49.500;8.288;2023-01-15T18:04:23;6.60;99.90
23233;DHT22;11785;49.500;8.288;2023-01-15T18:07:08;6.60;99.90
23233;DHT22;11785;49.500;8.288;2023-01-15T18:09:35;6.60;99.90
23233;DHT22;11785;49.500;8.288;2023-01-15T18:12:02;6.40;99.90